createdAt,value
2023-03-25T00:02:31.111Z,94.30
2023-03-25T00:05:33.936Z,94.68
2023-03-25T00:08:37.263Z,98.06
2023-03-25T00:11:41.069Z,100.00
2023-03-25T00:14:55.219Z,100.00
2023-03-25T00:17:58.491Z,100.00
2023-03-25T00:21:02.750Z,100.00
2023-03-25T00:24:05.704Z,100.00
2023-03-25T00:27:10.792Z,98.36
2023-03-25T00:30:21.286Z,99.42
2023-03-25T00:33:24.012Z,100.00
2023-03-25T00:36:27.949Z,98.54
2023-03-25T00:39:30.904Z,97.60
2023-03-25T00:42:45.168Z,96.77
2023-03-25T00:45:49.747Z,95.03
2023-03-25T00:48:53.024Z,99.92
2023-03-25T00:51:58.746Z,97.76
2023-03-25T00:55:02.449Z,99.38
2023-03-25T00:58:06.176Z,100.00
2023-03-25T01:01:17.386Z,100.00
2023-03-25T01:04:20.287Z,100.00
2023-03-25T01:07:25.561Z,100.00
2023-03-25T01:10:28.457Z,100.00
2023-03-25T01:13:32.658Z,100.00
2023-03-25T01:16:35.679Z,100.00
2023-03-25T01:19:40.057Z,100.00
2023-03-25T01:22:42.697Z,100.00
2023-03-25T01:25:47.091Z,100.00
2023-03-25T01:28:51.480Z,99.47
2023-03-25T01:31:56.262Z,100.00
2023-03-25T01:34:59.109Z,100.00
2023-03-25T01:38:08.224Z,100.00
2023-03-25T01:41:13.620Z,99.98
2023-03-25T01:44:20.128Z,96.86
2023-03-25T01:47:27.031Z,94.57
2023-03-25T01:50:29.908Z,94.34
2023-03-25T01:53:35.896Z,94.05
2023-03-25T01:56:43.011Z,92.63
2023-03-25T01:59:46.172Z,92.18
2023-03-25T02:02:51.695Z,92.40
2023-03-25T02:06:15.789Z,92.81
2023-03-25T02:09:21.510Z,91.85
2023-03-25T02:12:26.024Z,90.49
2023-03-25T02:15:31.953Z,89.83
2023-03-25T02:19:06.287Z,89.62
2023-03-25T02:22:15.021Z,90.01
2023-03-25T02:25:19.547Z,91.19
2023-03-25T02:28:37.387Z,94.44
2023-03-25T02:31:45.190Z,96.21
2023-03-25T02:35:09.840Z,90.84
2023-03-25T02:38:19.691Z,89.77
2023-03-25T02:41:38.566Z,89.43
2023-03-25T02:45:08.382Z,91.29
2023-03-25T02:48:45.832Z,91.14
2023-03-25T02:52:04.648Z,89.40
2023-03-25T02:55:12.823Z,88.35
2023-03-25T02:58:18.373Z,88.72
2023-03-25T03:01:23.121Z,87.66
2023-03-25T03:04:28.231Z,86.70
2023-03-25T03:07:34.971Z,86.33
2023-03-25T03:11:11.263Z,86.97
2023-03-25T03:14:44.953Z,86.40
2023-03-25T03:18:13.618Z,85.34
2023-03-25T03:21:23.530Z,83.76
2023-03-25T03:24:32.367Z,84.06
2023-03-25T03:28:14.648Z,83.53
2023-03-25T03:31:48.836Z,81.72
2023-03-25T03:34:56.623Z,82.71
2023-03-25T03:38:06.585Z,82.25
2023-03-25T03:41:12.773Z,82.81
2023-03-25T03:44:21.570Z,82.43
2023-03-25T03:47:30.870Z,80.79
2023-03-25T03:50:39.134Z,81.22
2023-03-25T03:54:04.745Z,80.51
2023-03-25T03:57:14.333Z,80.60
2023-03-25T04:00:24.419Z,80.40
2023-03-25T04:03:35.203Z,78.70
2023-03-25T04:06:42.668Z,79.12
2023-03-25T04:09:55.421Z,79.29
2023-03-25T04:13:01.896Z,78.56
2023-03-25T04:16:05.295Z,78.25
2023-03-25T04:19:13.899Z,77.98
2023-03-25T04:22:23.610Z,78.67
2023-03-25T04:25:26.678Z,78.87
2023-03-25T04:28:32.377Z,78.20
2023-03-25T04:31:35.460Z,78.85
2023-03-25T04:34:38.798Z,77.58
2023-03-25T04:37:42.050Z,77.68
2023-03-25T04:40:48.057Z,77.27
2023-03-25T04:43:50.842Z,77.65
2023-03-25T04:46:54.271Z,76.98
2023-03-25T04:49:57.006Z,76.89
2023-03-25T04:53:03.249Z,76.49
2023-03-25T04:56:07.261Z,78.97
2023-03-25T04:59:10.971Z,80.20
2023-03-25T05:02:13.981Z,80.63
2023-03-25T05:05:19.308Z,81.08
2023-03-25T05:08:23.061Z,80.13
2023-03-25T05:11:29.393Z,81.21
2023-03-25T05:14:32.179Z,80.31
2023-03-25T05:17:35.313Z,80.41
2023-03-25T05:20:41.435Z,81.05
2023-03-25T05:23:44.968Z,80.03
2023-03-25T05:26:48.216Z,78.66
2023-03-25T05:29:51.014Z,78.54
2023-03-25T05:32:56.555Z,78.56
2023-03-25T05:36:01.859Z,78.03
2023-03-25T05:39:05.882Z,79.10
2023-03-25T05:42:11.822Z,80.49
2023-03-25T05:45:19.204Z,79.95
2023-03-25T05:48:21.978Z,78.50
2023-03-25T05:51:26.327Z,77.85
2023-03-25T05:54:29.774Z,77.16
2023-03-25T05:57:32.982Z,76.81
2023-03-25T06:00:37.247Z,77.27
2023-03-25T06:03:43.481Z,76.63
2023-03-25T06:06:46.422Z,75.51
2023-03-25T06:09:50.012Z,75.50
2023-03-25T06:12:53.371Z,74.09
2023-03-25T06:15:57.780Z,73.99
2023-03-25T06:19:00.940Z,73.92
2023-03-25T06:22:09.679Z,74.05
2023-03-25T06:25:17.727Z,74.29
2023-03-25T06:28:21.074Z,73.28
2023-03-25T06:31:26.946Z,72.06
2023-03-25T06:34:30.039Z,72.93
2023-03-25T06:37:34.017Z,70.78
2023-03-25T06:40:43.949Z,70.65
2023-03-25T06:43:47.989Z,68.93
2023-03-25T06:47:26.148Z,68.58
2023-03-25T06:50:29.195Z,68.08
2023-03-25T06:53:33.124Z,69.85
2023-03-25T06:56:36.203Z,70.27
2023-03-25T06:59:39.332Z,70.59
2023-03-25T07:02:42.322Z,70.38
2023-03-25T07:05:47.005Z,72.51
2023-03-25T07:08:49.991Z,72.75
2023-03-25T07:11:56.020Z,70.86
2023-03-25T07:14:59.430Z,71.85
2023-03-25T07:18:03.243Z,71.81
2023-03-25T07:21:06.360Z,72.47
2023-03-25T07:24:11.239Z,70.87
2023-03-25T07:27:14.965Z,69.53
2023-03-25T07:30:24.907Z,70.55
2023-03-25T07:33:27.719Z,71.28
2023-03-25T07:36:30.779Z,70.03
2023-03-25T07:39:33.514Z,71.96
2023-03-25T07:42:37.877Z,69.94
2023-03-25T07:45:52.264Z,71.81
2023-03-25T07:48:55.206Z,69.92
2023-03-25T07:51:58.002Z,67.77
2023-03-25T07:55:01.293Z,66.98
2023-03-25T07:58:04.012Z,68.26
2023-03-25T08:01:07.268Z,67.07
2023-03-25T08:04:10.220Z,67.57
2023-03-25T08:07:13.289Z,66.88
2023-03-25T08:10:17.222Z,65.74
2023-03-25T08:13:20.744Z,65.47
2023-03-25T08:16:23.841Z,65.87
2023-03-25T08:19:28.009Z,64.88
2023-03-25T08:22:30.861Z,65.09
2023-03-25T08:25:34.022Z,64.66
2023-03-25T08:28:36.720Z,66.69
2023-03-25T08:31:41.270Z,67.82
2023-03-25T08:34:44.058Z,69.00
2023-03-25T08:37:46.890Z,70.11
2023-03-25T08:40:49.977Z,69.98
2023-03-25T08:43:53.569Z,69.96
2023-03-25T08:46:56.667Z,68.03
2023-03-25T08:49:59.784Z,68.28
2023-03-25T08:53:02.733Z,67.48
2023-03-25T08:56:07.553Z,64.72
2023-03-25T08:59:10.547Z,64.67
2023-03-25T09:02:13.672Z,64.46
2023-03-25T09:05:17.115Z,64.10
2023-03-25T09:08:20.038Z,64.36
2023-03-25T09:11:33.894Z,62.27
2023-03-25T09:14:39.400Z,62.00
2023-03-25T09:17:43.225Z,63.31
2023-03-25T09:20:48.794Z,61.83
2023-03-25T09:23:51.579Z,63.21
2023-03-25T09:26:54.264Z,60.00
2023-03-25T09:29:57.117Z,61.78
2023-03-25T09:33:01.503Z,60.45
2023-03-25T09:36:04.677Z,58.81
2023-03-25T09:39:08.883Z,58.38
2023-03-25T09:42:31.371Z,59.92
2023-03-25T09:45:37.354Z,60.60
2023-03-25T09:48:43.009Z,61.31
2023-03-25T09:51:47.001Z,59.55
2023-03-25T09:54:55.891Z,59.71
2023-03-25T09:58:57.086Z,57.62
2023-03-25T10:02:03.586Z,59.01
2023-03-25T10:05:34.859Z,58.26
2023-03-25T10:09:02.342Z,57.24
2023-03-25T10:12:30.379Z,56.61
2023-03-25T10:15:39.785Z,56.52
2023-03-25T10:18:54.890Z,54.91
2023-03-25T10:22:26.016Z,54.50
2023-03-25T10:25:32.298Z,54.31
2023-03-25T10:28:39.010Z,55.65
2023-03-25T10:31:51.145Z,54.62
2023-03-25T10:34:56.460Z,55.50
2023-03-25T10:38:06.588Z,54.49
2023-03-25T10:41:17.855Z,53.06
2023-03-25T10:44:21.879Z,52.06
2023-03-25T10:47:28.367Z,53.06
2023-03-25T10:50:31.306Z,52.34
2023-03-25T10:53:34.783Z,53.05
2023-03-25T10:56:42.866Z,52.34
2023-03-25T11:00:29.822Z,53.26
2023-03-25T11:03:35.820Z,52.13
2023-03-25T11:06:41.591Z,51.63
2023-03-25T11:09:44.503Z,51.79
2023-03-25T11:12:48.547Z,53.23
2023-03-25T11:15:56.404Z,52.78
2023-03-25T11:19:02.373Z,51.92
2023-03-25T11:22:16.573Z,50.72
2023-03-25T11:25:24.579Z,51.73
2023-03-25T11:28:45.761Z,51.20
2023-03-25T11:32:06.942Z,52.41
2023-03-25T11:35:17.110Z,53.04
2023-03-25T11:38:23.238Z,51.18
2023-03-25T11:41:29.779Z,52.38
2023-03-25T11:44:33.305Z,53.96
2023-03-25T11:47:39.586Z,52.04
2023-03-25T11:50:55.040Z,52.97
2023-03-25T11:54:00.345Z,52.93
2023-03-25T11:57:07.948Z,52.44
2023-03-25T12:00:36.117Z,52.57
2023-03-25T12:03:42.508Z,51.46
2023-03-25T12:07:09.802Z,50.04
2023-03-25T12:10:36.147Z,50.35
2023-03-25T12:13:54.142Z,50.14
2023-03-25T12:17:21.697Z,51.38
2023-03-25T12:20:33.000Z,51.32
2023-03-25T12:24:19.165Z,48.61
2023-03-25T12:27:38.284Z,49.30
2023-03-25T12:31:07.167Z,49.39
2023-03-25T12:34:30.892Z,47.20
2023-03-25T12:37:45.156Z,47.58
2023-03-25T12:40:55.141Z,48.36
2023-03-25T12:43:59.179Z,47.73
2023-03-25T12:47:08.745Z,49.05
2023-03-25T12:50:49.532Z,48.72
2023-03-25T12:53:52.412Z,51.20
2023-03-25T12:57:14.054Z,52.50
2023-03-25T13:00:42.838Z,52.19
2023-03-25T13:04:13.591Z,54.06
2023-03-25T13:07:20.111Z,54.65
2023-03-25T13:10:25.600Z,54.32
2023-03-25T13:13:30.337Z,53.83
2023-03-25T13:16:35.644Z,54.12
2023-03-25T13:19:44.362Z,54.67
2023-03-25T13:22:51.801Z,54.45
2023-03-25T13:26:12.230Z,55.24
2023-03-25T13:29:22.464Z,55.06
2023-03-25T13:32:39.699Z,54.55
2023-03-25T13:36:06.328Z,54.41
2023-03-25T13:39:22.499Z,53.15
2023-03-25T13:42:52.601Z,53.63
2023-03-25T13:46:00.807Z,51.96
2023-03-25T13:49:15.887Z,52.15
2023-03-25T13:52:18.854Z,51.42
2023-03-25T13:55:35.975Z,51.89
2023-03-25T13:58:54.090Z,50.56
2023-03-25T14:02:15.391Z,50.55
2023-03-25T14:05:42.254Z,49.70
2023-03-25T14:09:10.404Z,50.43
2023-03-25T14:12:16.797Z,49.58
2023-03-25T14:15:38.866Z,49.56
2023-03-25T14:19:03.579Z,50.30
2023-03-25T14:22:08.910Z,49.68
2023-03-25T14:25:23.020Z,49.44
2023-03-25T14:28:43.677Z,49.84
2023-03-25T14:32:06.081Z,49.63
2023-03-25T14:35:34.410Z,48.90
2023-03-25T14:38:54.710Z,48.56
2023-03-25T14:42:13.765Z,47.75
2023-03-25T14:45:34.919Z,48.08
2023-03-25T14:48:52.935Z,49.06
2023-03-25T14:51:58.405Z,50.67
2023-03-25T14:55:07.103Z,49.58
2023-03-25T14:58:27.188Z,49.43
2023-03-25T15:01:35.956Z,48.99
2023-03-25T15:04:39.493Z,49.31
2023-03-25T15:07:48.609Z,48.67
2023-03-25T15:11:13.718Z,48.27
2023-03-25T15:14:21.383Z,48.59
2023-03-25T15:17:46.307Z,49.35
2023-03-25T15:20:49.102Z,50.42
2023-03-25T15:23:59.555Z,51.14
2023-03-25T15:27:40.198Z,49.19
2023-03-25T15:31:01.573Z,49.65
2023-03-25T15:34:24.972Z,48.47
2023-03-25T15:37:46.681Z,49.53
2023-03-25T15:40:59.586Z,49.15
2023-03-25T15:44:06.197Z,47.78
2023-03-25T15:47:29.050Z,48.03
2023-03-25T15:50:38.065Z,49.31
2023-03-25T15:54:08.912Z,47.48
2023-03-25T15:57:19.131Z,46.59
2023-03-25T16:00:41.625Z,48.13
2023-03-25T16:03:45.453Z,47.56
2023-03-25T16:06:51.437Z,47.44
2023-03-25T16:09:55.767Z,46.33
2023-03-25T16:13:02.241Z,48.48
2023-03-25T16:16:07.412Z,49.75
2023-03-25T16:19:23.106Z,46.45
2023-03-25T16:22:30.852Z,46.77
2023-03-25T16:25:42.145Z,46.15
2023-03-25T16:28:45.183Z,46.65
2023-03-25T16:31:59.811Z,47.42
2023-03-25T16:35:02.760Z,48.86
2023-03-25T16:38:06.646Z,48.94
2023-03-25T16:41:14.851Z,49.11
2023-03-25T16:44:23.307Z,49.54
2023-03-25T16:47:26.473Z,50.58
2023-03-25T16:50:29.266Z,50.67
2023-03-25T16:53:40.280Z,51.83
2023-03-25T16:56:51.190Z,51.28
2023-03-25T16:59:57.737Z,50.76
2023-03-25T17:03:02.163Z,51.56
2023-03-25T17:06:20.470Z,50.97
2023-03-25T17:09:28.673Z,51.27
2023-03-25T17:12:31.674Z,51.74
2023-03-25T17:15:34.969Z,52.37
2023-03-25T17:18:40.674Z,52.69
2023-03-25T17:22:04.023Z,52.39
2023-03-25T17:25:26.788Z,52.99
2023-03-25T17:28:39.320Z,52.10
2023-03-25T17:31:42.338Z,52.50
2023-03-25T17:34:46.957Z,53.32
2023-03-25T17:37:50.945Z,53.30
2023-03-25T17:41:02.888Z,54.15
2023-03-25T17:44:06.713Z,54.38
2023-03-25T17:47:15.670Z,56.23
2023-03-25T17:50:21.491Z,56.61
2023-03-25T17:53:25.059Z,56.99
2023-03-25T17:56:29.075Z,57.09
2023-03-25T17:59:32.015Z,57.21
2023-03-25T18:02:42.029Z,57.78
2023-03-25T18:05:45.989Z,56.98
2023-03-25T18:08:49.334Z,56.93
2023-03-25T18:11:57.180Z,57.24
2023-03-25T18:14:59.987Z,57.42
2023-03-25T18:18:04.611Z,57.65
2023-03-25T18:21:11.598Z,56.37
2023-03-25T18:24:14.956Z,58.18
2023-03-25T18:27:17.850Z,57.69
2023-03-25T18:30:36.031Z,56.74
2023-03-25T18:33:38.841Z,54.84
2023-03-25T18:36:46.089Z,54.15
2023-03-25T18:39:49.458Z,54.68
2023-03-25T18:42:53.045Z,54.75
2023-03-25T18:45:56.555Z,55.12
2023-03-25T18:49:02.965Z,55.79
2023-03-25T18:52:06.058Z,55.52
2023-03-25T18:55:09.937Z,55.87
2023-03-25T18:58:20.145Z,56.08
2023-03-25T19:01:24.204Z,56.61
2023-03-25T19:04:27.592Z,56.17
2023-03-25T19:07:30.442Z,57.28
2023-03-25T19:10:35.611Z,57.80
2023-03-25T19:13:38.626Z,57.58
2023-03-25T19:16:46.098Z,57.60
2023-03-25T19:19:54.339Z,58.25
2023-03-25T19:22:57.745Z,58.47
2023-03-25T19:26:01.606Z,59.10
2023-03-25T19:29:04.746Z,59.24
2023-03-25T19:32:07.658Z,58.83
2023-03-25T19:35:12.957Z,59.31
2023-03-25T19:38:20.056Z,59.12
2023-03-25T19:41:23.301Z,59.41
2023-03-25T19:44:26.178Z,59.14
2023-03-25T19:47:29.235Z,59.60
2023-03-25T19:50:33.457Z,59.25
2023-03-25T19:53:36.460Z,59.61
2023-03-25T19:56:40.030Z,59.18
2023-03-25T19:59:44.570Z,59.64
2023-03-25T20:02:50.567Z,59.99
2023-03-25T20:06:00.677Z,60.02
2023-03-25T20:09:06.760Z,60.65
2023-03-25T20:12:09.594Z,60.57
2023-03-25T20:15:13.485Z,60.76
2023-03-25T20:18:16.895Z,60.55
2023-03-25T20:21:22.024Z,60.38
2023-03-25T20:24:25.116Z,60.72
2023-03-25T20:27:28.908Z,60.55
2023-03-25T20:30:34.606Z,60.27
2023-03-25T20:33:37.349Z,61.10
2023-03-25T20:36:40.755Z,61.24
2023-03-25T20:39:43.744Z,61.29
2023-03-25T20:42:48.003Z,61.35
2023-03-25T20:45:55.979Z,62.30
2023-03-25T20:48:59.229Z,62.35
2023-03-25T20:52:02.174Z,62.55
2023-03-25T20:55:06.129Z,63.18
2023-03-25T20:58:09.358Z,64.33
2023-03-25T21:01:12.478Z,63.96
2023-03-25T21:04:15.695Z,64.08
2023-03-25T21:07:19.702Z,64.30
2023-03-25T21:10:22.668Z,63.48
2023-03-25T21:13:31.790Z,63.39
2023-03-25T21:16:34.563Z,64.48
2023-03-25T21:19:37.797Z,65.52
2023-03-25T21:22:44.724Z,66.07
2023-03-25T21:25:50.496Z,65.54
2023-03-25T21:28:53.522Z,65.44
2023-03-25T21:31:56.773Z,64.56
2023-03-25T21:35:00.180Z,65.55
2023-03-25T21:38:07.655Z,65.78
2023-03-25T21:41:11.102Z,64.97
2023-03-25T21:44:16.290Z,64.63
2023-03-25T21:47:18.998Z,65.06
2023-03-25T21:50:22.193Z,65.27
2023-03-25T21:53:31.689Z,65.18
2023-03-25T21:56:35.193Z,65.62
2023-03-25T21:59:38.225Z,65.90
2023-03-25T22:02:44.909Z,66.46
2023-03-25T22:05:47.860Z,65.93
2023-03-25T22:08:51.124Z,66.58
2023-03-25T22:11:53.991Z,66.65
2023-03-25T22:14:56.815Z,65.89
2023-03-25T22:17:59.598Z,65.89
2023-03-25T22:21:10.067Z,65.61
2023-03-25T22:24:12.884Z,65.87
2023-03-25T22:27:15.901Z,66.75
2023-03-25T22:30:18.624Z,66.73
2023-03-25T22:33:21.690Z,66.83
2023-03-25T22:36:24.546Z,66.82
2023-03-25T22:39:28.801Z,66.58
2023-03-25T22:42:31.487Z,66.49
2023-03-25T22:45:34.284Z,67.12
2023-03-25T22:48:39.634Z,66.88
2023-03-25T22:51:42.655Z,66.49
2023-03-25T22:54:45.357Z,66.46
2023-03-25T22:57:48.024Z,66.73
2023-03-25T23:00:51.274Z,67.36
2023-03-25T23:03:57.680Z,67.81
2023-03-25T23:07:07.709Z,67.67
2023-03-25T23:10:14.073Z,67.23
2023-03-25T23:13:19.796Z,66.95
2023-03-25T23:16:26.137Z,66.90
2023-03-25T23:19:28.847Z,66.57
2023-03-25T23:22:32.014Z,65.97
2023-03-25T23:25:35.078Z,66.50
2023-03-25T23:28:38.219Z,66.90
2023-03-25T23:31:43.044Z,66.43
2023-03-25T23:34:45.746Z,66.08
2023-03-25T23:37:50.541Z,65.99
2023-03-25T23:41:10.780Z,65.82
2023-03-25T23:44:13.954Z,65.56
2023-03-25T23:47:17.216Z,65.62
2023-03-25T23:50:19.913Z,65.65
2023-03-25T23:53:23.732Z,65.48
2023-03-25T23:56:26.516Z,66.41
2023-03-25T23:59:29.224Z,66.15
